Time;durP1;ratioP1;P1;durP2;ratioP2;P2;SDS_P1;SDS_P2;PMS_P1;PMS_P2;Temp;Humidity;BMP_temperature;BMP_pressure;BME280_temperature;BME280_humidity;BME280_pressure;Samples;Min_cycle;Max_cycle;Signal;HPM_P1;HPM_P2
2023/07/02 00:00:32;;;;;;;18.35;7.50;;;;;;;;;;5032581;28;20045;-77
2023/07/02 00:02:59;;;;;;;23.67;7.95;;;;;;;;;;5033114;28;20048;-77
2023/07/02 00:05:25;;;;;;;21.98;8.07;;;;;;;;;;5031174;28;20049;-77
2023/07/02 00:07:51;;;;;;;25.63;8.70;;;;;;;;;;5032971;28;20048;-77
2023/07/02 00:10:17;;;;;;;21.58;7.97;;;;;;;;;;5033056;28;20048;-77
2023/07/02 00:12:44;;;;;;;19.52;8.05;;;;;;;;;;5031727;28;20124;-77
2023/07/02 00:15:10;;;;;;;18.48;8.23;;;;;;;;;;5035897;28;20034;-76
2023/07/02 00:17:39;;;;;;;22.85;8.35;;;;;;;;;;5036682;28;20099;-76
2023/07/02 00:20:13;;;;;;;21.00;8.20;;;;;;;;;;5036322;28;20437;-76
2023/07/02 00:22:41;;;;;;;25.60;8.18;;;;;;;;;;5036762;28;20107;-76
2023/07/02 00:25:08;;;;;;;22.38;8.70;;;;;;;;;;5035889;28;20503;-76
2023/07/02 00:27:34;;;;;;;24.02;8.88;;;;;;;;;;5036446;28;20049;-77
2023/07/02 00:30:00;;;;;;;20.60;8.20;;;;;;;;;;5036089;28;20407;-76
2023/07/02 00:32:26;;;;;;;21.50;7.82;;;;;;;;;;5036271;28;20518;-76
2023/07/02 00:34:52;;;;;;;19.70;8.93;;;;;;;;;;5036142;28;20530;-77
2023/07/02 00:37:18;;;;;;;21.67;8.45;;;;;;;;;;5036288;28;20060;-76
2023/07/02 00:39:44;;;;;;;23.58;8.50;;;;;;;;;;5036408;28;20041;-76
2023/07/02 00:42:11;;;;;;;24.25;7.80;;;;;;;;;;5035242;28;20133;-77
2023/07/02 00:44:40;;;;;;;21.50;8.52;;;;;;;;;;5035834;28;20056;-77
2023/07/02 00:47:10;;;;;;;23.60;8.35;;;;;;;;;;5035942;28;20049;-76
2023/07/02 00:49:36;;;;;;;22.83;8.45;;;;;;;;;;5036022;28;20045;-77
2023/07/02 00:52:02;;;;;;;21.50;7.93;;;;;;;;;;5035914;28;20046;-76
2023/07/02 00:54:29;;;;;;;22.60;8.48;;;;;;;;;;5035336;28;20041;-76
2023/07/02 00:56:55;;;;;;;27.73;8.88;;;;;;;;;;5035064;28;20507;-77
2023/07/02 00:59:21;;;;;;;21.35;7.80;;;;;;;;;;5035598;28;20157;-76
2023/07/02 01:01:49;;;;;;;41.45;11.27;;;;;;;;;;5035277;28;20037;-76
2023/07/02 01:04:18;;;;;;;20.25;8.35;;;;;;;;;;5035489;28;20041;-76
2023/07/02 01:06:45;;;;;;;24.30;8.82;;;;;;;;;;5035143;28;20048;-77
2023/07/02 01:09:11;;;;;;;26.25;8.98;;;;;;;;;;5035467;28;20116;-76
2023/07/02 01:11:39;;;;;;;23.75;8.50;;;;;;;;;;5035170;28;20073;-77
2023/07/02 01:14:08;;;;;;;21.52;9.27;;;;;;;;;;5035651;28;20038;-77
2023/07/02 01:16:35;;;;;;;27.25;8.73;;;;;;;;;;5035075;28;20128;-76
2023/07/02 01:19:03;;;;;;;27.30;9.35;;;;;;;;;;5035170;28;20045;-76
2023/07/02 01:21:29;;;;;;;25.17;8.15;;;;;;;;;;5034616;28;20053;-76
2023/07/02 01:23:55;;;;;;;26.48;9.15;;;;;;;;;;5035089;28;20041;-76
2023/07/02 01:26:21;;;;;;;23.92;8.60;;;;;;;;;;5034545;28;20053;-76
2023/07/02 01:28:48;;;;;;;20.75;8.32;;;;;;;;;;5035085;28;20088;-77
2023/07/02 01:31:14;;;;;;;21.48;9.07;;;;;;;;;;5033409;28;20049;-77
2023/07/02 01:33:40;;;;;;;23.38;8.80;;;;;;;;;;5034888;28;20543;-76
2023/07/02 01:36:06;;;;;;;18.63;8.07;;;;;;;;;;5034818;28;20042;-77
2023/07/02 01:38:32;;;;;;;22.45;8.77;;;;;;;;;;5034882;28;20097;-76
2023/07/02 01:40:58;;;;;;;29.80;9.43;;;;;;;;;;5034786;28;20049;-77
2023/07/02 01:43:24;;;;;;;21.23;9.13;;;;;;;;;;5034954;28;20076;-76
2023/07/02 01:45:50;;;;;;;21.70;8.88;;;;;;;;;;5033452;28;20052;-77
2023/07/02 01:48:16;;;;;;;20.27;8.73;;;;;;;;;;5035076;28;20132;-76
2023/07/02 01:50:42;;;;;;;22.17;8.30;;;;;;;;;;5034741;28;20080;-76
2023/07/02 01:53:08;;;;;;;23.20;8.00;;;;;;;;;;5034559;28;20195;-76
2023/07/02 01:55:35;;;;;;;19.98;8.70;;;;;;;;;;5034723;28;20038;-77
2023/07/02 01:58:01;;;;;;;23.30;9.63;;;;;;;;;;5034395;28;20041;-76
2023/07/02 02:00:27;;;;;;;22.30;7.90;;;;;;;;;;5034489;28;20053;-76
2023/07/02 02:02:53;;;;;;;22.08;8.52;;;;;;;;;;5034712;28;20099;-76
2023/07/02 02:05:19;;;;;;;18.70;8.57;;;;;;;;;;5034165;28;20045;-77
2023/07/02 02:07:45;;;;;;;21.30;8.40;;;;;;;;;;5034522;28;20146;-76
2023/07/02 02:10:11;;;;;;;22.65;8.10;;;;;;;;;;5034447;28;20042;-76
2023/07/02 02:12:37;;;;;;;24.60;8.73;;;;;;;;;;5034101;28;20391;-77
2023/07/02 02:15:03;;;;;;;25.10;8.85;;;;;;;;;;5031013;28;20397;-76
2023/07/02 02:17:29;;;;;;;23.58;8.13;;;;;;;;;;5012532;28;20483;-76
2023/07/02 02:19:56;;;;;;;25.38;9.18;;;;;;;;;;5014685;28;20046;-76
2023/07/02 02:22:22;;;;;;;20.52;8.32;;;;;;;;;;5014101;28;20060;-77
2023/07/02 02:24:48;;;;;;;22.55;8.35;;;;;;;;;;5017157;28;20100;-77
2023/07/02 02:27:14;;;;;;;20.98;7.75;;;;;;;;;;5017539;28;20103;-76
2023/07/02 02:29:40;;;;;;;18.65;8.45;;;;;;;;;;5017635;28;20069;-76
2023/07/02 02:32:06;;;;;;;20.05;8.80;;;;;;;;;;5016156;28;20111;-78
2023/07/02 02:34:32;;;;;;;20.83;7.85;;;;;;;;;;5015645;28;20077;-77
2023/07/02 02:36:58;;;;;;;23.73;8.30;;;;;;;;;;5013403;28;20046;-76
2023/07/02 02:39:24;;;;;;;20.45;8.48;;;;;;;;;;5014170;28;20048;-76
2023/07/02 02:41:51;;;;;;;20.33;8.52;;;;;;;;;;5014057;28;20081;-76
2023/07/02 02:44:17;;;;;;;22.67;8.27;;;;;;;;;;5013911;28;20140;-76
2023/07/02 02:46:43;;;;;;;22.05;8.82;;;;;;;;;;5013568;28;20041;-76
2023/07/02 02:49:09;;;;;;;22.42;7.90;;;;;;;;;;5014394;28;20042;-76
2023/07/02 02:51:35;;;;;;;19.95;8.57;;;;;;;;;;5013867;28;20042;-76
2023/07/02 02:54:01;;;;;;;25.48;8.65;;;;;;;;;;5012188;28;20124;-77
2023/07/02 02:56:27;;;;;;;26.30;8.55;;;;;;;;;;5013813;28;20061;-76
2023/07/02 02:58:53;;;;;;;18.60;7.30;;;;;;;;;;5013748;28;20392;-76
2023/07/02 03:01:19;;;;;;;15.25;7.13;;;;;;;;;;5013202;28;20455;-76
2023/07/02 03:03:46;;;;;;;25.90;8.57;;;;;;;;;;5014044;28;20057;-76
2023/07/02 03:06:12;;;;;;;18.48;7.50;;;;;;;;;;5013335;28;20054;-76
2023/07/02 03:08:39;;;;;;;20.33;7.28;;;;;;;;;;5014080;28;20046;-76
2023/07/02 03:11:06;;;;;;;18.80;7.40;;;;;;;;;;5013221;28;20081;-76
2023/07/02 03:13:32;;;;;;;19.88;7.97;;;;;;;;;;5014096;28;20053;-76
2023/07/02 03:15:58;;;;;;;22.38;7.70;;;;;;;;;;5013041;28;20496;-76
2023/07/02 03:18:24;;;;;;;17.63;7.00;;;;;;;;;;5013112;28;20133;-76
2023/07/02 03:20:50;;;;;;;20.52;8.05;;;;;;;;;;5013218;28;20037;-76
2023/07/02 03:23:16;;;;;;;18.65;7.55;;;;;;;;;;5013640;28;20469;-77
2023/07/02 03:25:42;;;;;;;23.58;8.20;;;;;;;;;;5012817;28;20057;-76
2023/07/02 03:28:08;;;;;;;19.48;7.35;;;;;;;;;;5013201;28;20523;-77
2023/07/02 03:30:34;;;;;;;22.25;7.80;;;;;;;;;;5013530;28;20057;-77
2023/07/02 03:33:00;;;;;;;18.90;7.75;;;;;;;;;;5013385;28;20042;-76
2023/07/02 03:35:26;;;;;;;20.33;7.93;;;;;;;;;;5012994;28;20045;-76
2023/07/02 03:37:52;;;;;;;19.00;7.05;;;;;;;;;;5013419;28;20152;-77
2023/07/02 03:40:18;;;;;;;16.20;7.38;;;;;;;;;;5013334;28;20052;-77
2023/07/02 03:42:44;;;;;;;13.65;6.80;;;;;;;;;;5013086;28;20045;-77
2023/07/02 03:45:10;;;;;;;18.75;7.72;;;;;;;;;;5011396;28;20081;-77
2023/07/02 03:47:36;;;;;;;16.10;7.47;;;;;;;;;;5013755;28;20066;-77
2023/07/02 03:50:02;;;;;;;18.08;7.03;;;;;;;;;;5016299;28;20512;-77
2023/07/02 03:52:28;;;;;;;18.95;7.43;;;;;;;;;;5016812;28;20487;-77
2023/07/02 03:54:55;;;;;;;17.27;7.00;;;;;;;;;;5016697;28;20465;-77
2023/07/02 03:57:21;;;;;;;19.00;7.25;;;;;;;;;;5017396;28;20120;-77
2023/07/02 03:59:47;;;;;;;15.27;6.95;;;;;;;;;;5017040;28;20038;-77
2023/07/02 04:02:13;;;;;;;17.85;6.40;;;;;;;;;;5016704;28;20050;-77
2023/07/02 04:04:39;;;;;;;16.88;7.65;;;;;;;;;;5016354;28;20515;-77
2023/07/02 04:07:05;;;;;;;17.50;7.93;;;;;;;;;;4998517;28;20447;-76
2023/07/02 04:09:32;;;;;;;14.10;6.32;;;;;;;;;;5016695;28;20038;-76
2023/07/02 04:11:58;;;;;;;18.90;6.53;;;;;;;;;;5016935;28;20080;-78
2023/07/02 04:14:25;;;;;;;17.27;7.47;;;;;;;;;;5016107;28;20161;-77
2023/07/02 04:16:51;;;;;;;17.35;6.53;;;;;;;;;;5016186;28;20046;-77
2023/07/02 04:19:17;;;;;;;15.27;6.45;;;;;;;;;;5016450;28;20038;-77
2023/07/02 04:21:43;;;;;;;14.38;6.35;;;;;;;;;;5016631;28;20125;-77
2023/07/02 04:24:09;;;;;;;14.38;6.38;;;;;;;;;;5016798;28;20092;-77
2023/07/02 04:26:36;;;;;;;12.88;6.00;;;;;;;;;;5016209;28;20050;-77
2023/07/02 04:29:02;;;;;;;15.90;6.22;;;;;;;;;;5016412;28;20042;-77
2023/07/02 04:31:28;;;;;;;14.40;6.03;;;;;;;;;;5016479;28;20053;-77
2023/07/02 04:33:54;;;;;;;11.48;5.65;;;;;;;;;;5016071;28;20042;-77
2023/07/02 04:36:21;;;;;;;15.95;6.00;;;;;;;;;;5014596;28;20484;-78
2023/07/02 04:38:47;;;;;;;14.70;6.10;;;;;;;;;;5017018;28;20045;-77
2023/07/02 04:41:13;;;;;;;13.40;5.90;;;;;;;;;;5016203;28;20046;-77
2023/07/02 04:43:39;;;;;;;12.82;5.25;;;;;;;;;;5016316;28;20468;-77
2023/07/02 04:46:06;;;;;;;11.10;5.00;;;;;;;;;;5015821;28;20053;-77
2023/07/02 04:48:33;;;;;;;13.43;5.53;;;;;;;;;;5016214;28;20077;-77
2023/07/02 04:50:59;;;;;;;14.90;5.38;;;;;;;;;;5015688;28;20088;-77
2023/07/02 04:53:25;;;;;;;19.25;5.45;;;;;;;;;;5016144;28;20108;-77
2023/07/02 04:55:51;;;;;;;18.55;5.72;;;;;;;;;;5015786;28;20046;-77
2023/07/02 04:58:17;;;;;;;13.38;5.53;;;;;;;;;;5015784;28;20049;-77
2023/07/02 05:00:43;;;;;;;12.43;5.15;;;;;;;;;;5014926;28;20053;-77
2023/07/02 05:03:09;;;;;;;11.50;5.32;;;;;;;;;;5016072;28;20120;-77
2023/07/02 05:05:35;;;;;;;13.13;5.38;;;;;;;;;;5015827;28;20084;-77
2023/07/02 05:08:01;;;;;;;12.40;5.00;;;;;;;;;;5015999;28;20041;-76
2023/07/02 05:10:27;;;;;;;10.93;4.75;;;;;;;;;;5015712;28;20054;-77
2023/07/02 05:12:53;;;;;;;10.77;4.45;;;;;;;;;;5015966;28;20099;-77
2023/07/02 05:15:19;;;;;;;13.25;5.13;;;;;;;;;;5020348;28;20038;-77
2023/07/02 05:17:45;;;;;;;13.07;5.05;;;;;;;;;;5035456;28;20049;-77
2023/07/02 05:20:11;;;;;;;16.20;5.22;;;;;;;;;;5035079;28;20091;-77
2023/07/02 05:22:37;;;;;;;11.52;5.50;;;;;;;;;;5035517;28;20072;-77
2023/07/02 05:25:03;;;;;;;14.20;5.50;;;;;;;;;;5034817;28;20538;-77
2023/07/02 05:27:29;;;;;;;9.98;4.90;;;;;;;;;;5035256;28;20053;-78
2023/07/02 05:29:56;;;;;;;15.15;5.78;;;;;;;;;;5035155;28;20147;-78
2023/07/02 05:32:22;;;;;;;11.25;4.95;;;;;;;;;;5035143;28;20053;-78
2023/07/02 05:34:48;;;;;;;11.27;4.72;;;;;;;;;;5035085;28;20179;-78
2023/07/02 05:37:14;;;;;;;14.48;5.13;;;;;;;;;;5033142;28;20120;-78
2023/07/02 05:39:40;;;;;;;12.80;5.45;;;;;;;;;;5035269;28;20049;-77
2023/07/02 05:42:06;;;;;;;11.52;5.10;;;;;;;;;;5033036;28;20480;-78
2023/07/02 05:44:32;;;;;;;15.98;5.75;;;;;;;;;;5034737;28;20049;-78
2023/07/02 05:46:58;;;;;;;17.88;6.85;;;;;;;;;;5034282;28;20050;-78
2023/07/02 05:49:26;;;;;;;13.60;5.45;;;;;;;;;;5034867;28;20037;-78
2023/07/02 05:51:52;;;;;;;13.45;4.78;;;;;;;;;;5034615;28;20049;-78
2023/07/02 05:54:18;;;;;;;12.13;5.20;;;;;;;;;;5034745;28;20134;-78
2023/07/02 05:56:44;;;;;;;10.85;5.20;;;;;;;;;;5034880;28;20120;-78
2023/07/02 05:59:11;;;;;;;13.27;4.88;;;;;;;;;;5037377;28;20100;-78
2023/07/02 06:01:37;;;;;;;12.50;5.00;;;;;;;;;;5039312;28;20056;-78
2023/07/02 06:04:03;;;;;;;8.07;4.22;;;;;;;;;;5039959;28;20053;-77
2023/07/02 06:06:29;;;;;;;10.77;4.43;;;;;;;;;;5034676;28;20157;-77
2023/07/02 06:08:55;;;;;;;7.22;3.80;;;;;;;;;;5034681;28;20049;-77
2023/07/02 06:11:21;;;;;;;11.38;4.50;;;;;;;;;;5033662;28;20136;-78
2023/07/02 06:13:47;;;;;;;11.65;4.00;;;;;;;;;;5032942;28;20107;-78
2023/07/02 06:16:13;;;;;;;11.45;4.25;;;;;;;;;;5033882;28;20048;-78
2023/07/02 06:18:39;;;;;;;12.57;5.07;;;;;;;;;;5034223;28;20045;-78
2023/07/02 06:21:05;;;;;;;15.93;4.25;;;;;;;;;;5032221;28;20561;-78
2023/07/02 06:23:40;;;;;;;14.43;4.22;;;;;;;;;;5034161;28;20037;-78
2023/07/02 06:26:06;;;;;;;13.60;4.82;;;;;;;;;;5033425;28;20415;-77
2023/07/02 06:28:32;;;;;;;9.10;4.00;;;;;;;;;;5033569;28;20057;-77
2023/07/02 06:30:58;;;;;;;10.82;3.95;;;;;;;;;;5033793;28;20128;-77
2023/07/02 06:33:24;;;;;;;15.90;4.88;;;;;;;;;;5033912;28;20051;-77
2023/07/02 06:35:50;;;;;;;12.18;4.57;;;;;;;;;;5033822;28;20041;-77
2023/07/02 06:38:16;;;;;;;13.93;4.78;;;;;;;;;;5034177;28;20045;-77
2023/07/02 06:40:43;;;;;;;12.80;4.20;;;;;;;;;;5033779;28;20224;-77
2023/07/02 06:43:09;;;;;;;10.55;3.53;;;;;;;;;;5033870;28;20107;-77
2023/07/02 06:45:35;;;;;;;11.60;4.13;;;;;;;;;;5033660;28;20187;-77
2023/07/02 06:48:01;;;;;;;11.05;3.97;;;;;;;;;;5033876;28;20056;-77
2023/07/02 06:50:27;;;;;;;12.52;4.53;;;;;;;;;;5033521;28;20053;-77
2023/07/02 06:52:53;;;;;;;12.93;3.97;;;;;;;;;;5034003;28;20098;-77
2023/07/02 06:55:21;;;;;;;9.27;3.85;;;;;;;;;;5024879;28;20046;-77
2023/07/02 06:57:47;;;;;;;9.88;3.75;;;;;;;;;;5013651;28;20049;-77
2023/07/02 07:00:14;;;;;;;11.05;3.83;;;;;;;;;;5013283;28;20404;-77
2023/07/02 07:02:40;;;;;;;12.98;4.30;;;;;;;;;;5013164;28;20041;-77
2023/07/02 07:05:06;;;;;;;9.65;4.03;;;;;;;;;;5014065;28;20492;-77
2023/07/02 07:07:33;;;;;;;9.93;4.20;;;;;;;;;;5013788;28;20037;-77
2023/07/02 07:09:59;;;;;;;12.85;4.60;;;;;;;;;;5013931;28;20046;-77
2023/07/02 07:12:25;;;;;;;13.55;4.10;;;;;;;;;;5013146;28;20050;-77
2023/07/02 07:14:51;;;;;;;13.00;4.07;;;;;;;;;;5014760;28;20129;-77
2023/07/02 07:17:17;;;;;;;13.10;4.80;;;;;;;;;;5032953;28;20084;-77
2023/07/02 07:19:43;;;;;;;12.55;4.88;;;;;;;;;;5032478;28;20052;-77
2023/07/02 07:22:09;;;;;;;13.05;4.07;;;;;;;;;;5031591;28;20529;-77
2023/07/02 07:24:35;;;;;;;14.50;4.43;;;;;;;;;;5032552;28;20511;-77
2023/07/02 07:27:01;;;;;;;10.60;3.85;;;;;;;;;;5033009;28;20492;-77
2023/07/02 07:29:27;;;;;;;9.65;4.03;;;;;;;;;;5033254;28;20053;-77
2023/07/02 07:31:53;;;;;;;10.05;3.72;;;;;;;;;;5033006;28;20111;-77
2023/07/02 07:34:19;;;;;;;10.07;3.95;;;;;;;;;;5033073;28;20162;-77
2023/07/02 07:36:45;;;;;;;10.93;3.63;;;;;;;;;;5032661;28;20053;-77
2023/07/02 07:39:11;;;;;;;9.00;3.85;;;;;;;;;;5032698;28;20048;-77
2023/07/02 07:41:37;;;;;;;13.00;4.50;;;;;;;;;;5032686;28;20481;-77
2023/07/02 07:44:03;;;;;;;13.07;4.50;;;;;;;;;;5032518;28;20046;-77
2023/07/02 07:46:29;;;;;;;9.25;3.75;;;;;;;;;;5032605;28;20091;-77
2023/07/02 07:48:56;;;;;;;9.63;4.10;;;;;;;;;;5033290;28;20049;-77
2023/07/02 07:51:22;;;;;;;17.58;4.50;;;;;;;;;;5032379;28;20450;-77
2023/07/02 07:53:48;;;;;;;13.05;3.88;;;;;;;;;;5031107;28;20049;-78
2023/07/02 07:56:14;;;;;;;8.57;3.72;;;;;;;;;;5032838;28;20091;-78
2023/07/02 07:58:40;;;;;;;9.20;3.40;;;;;;;;;;5031356;28;20092;-78
2023/07/02 08:01:06;;;;;;;8.90;3.55;;;;;;;;;;5032480;28;20057;-78
2023/07/02 08:03:32;;;;;;;8.85;3.67;;;;;;;;;;5015168;28;20539;-78
2023/07/02 08:05:58;;;;;;;9.40;3.55;;;;;;;;;;5031120;28;20065;-78
2023/07/02 08:08:24;;;;;;;12.35;4.05;;;;;;;;;;5033381;28;20098;-77
2023/07/02 08:10:51;;;;;;;12.05;4.95;;;;;;;;;;5032871;28;20472;-78
2023/07/02 08:13:17;;;;;;;11.45;4.35;;;;;;;;;;5031712;28;20486;-78
2023/07/02 08:15:43;;;;;;;15.85;4.97;;;;;;;;;;5032751;28;20053;-78
2023/07/02 08:18:11;;;;;;;10.65;3.65;;;;;;;;;;5032432;28;20049;-78
2023/07/02 08:20:37;;;;;;;5.88;3.13;;;;;;;;;;5032423;28;20049;-77
2023/07/02 08:23:04;;;;;;;10.50;3.90;;;;;;;;;;5032313;28;20104;-77
2023/07/02 08:25:30;;;;;;;9.52;3.65;;;;;;;;;;5032028;28;20068;-77
2023/07/02 08:27:57;;;;;;;11.73;3.95;;;;;;;;;;5032444;28;20534;-77
2023/07/02 08:30:23;;;;;;;12.43;4.57;;;;;;;;;;5032133;28;20150;-77
2023/07/02 08:32:49;;;;;;;8.63;3.42;;;;;;;;;;5032628;28;20045;-77
2023/07/02 08:35:15;;;;;;;10.02;4.20;;;;;;;;;;5034408;28;20045;-77
2023/07/02 08:37:41;;;;;;;11.50;4.03;;;;;;;;;;5034521;28;20068;-78
2023/07/02 08:40:16;;;;;;;11.98;4.43;;;;;;;;;;5035614;28;20401;-78
2023/07/02 08:42:42;;;;;;;8.50;3.80;;;;;;;;;;5035792;28;20076;-77
2023/07/02 08:45:10;;;;;;;7.72;3.35;;;;;;;;;;5035670;28;20049;-77
2023/07/02 08:47:36;;;;;;;11.88;3.72;;;;;;;;;;5036301;28;20041;-77
2023/07/02 08:50:04;;;;;;;12.38;4.40;;;;;;;;;;5035868;28;20056;-77
2023/07/02 08:52:30;;;;;;;9.50;4.00;;;;;;;;;;5035875;28;20175;-77
2023/07/02 08:54:57;;;;;;;12.38;3.90;;;;;;;;;;5035501;28;20099;-77
2023/07/02 08:57:23;;;;;;;11.65;4.55;;;;;;;;;;5035788;28;20159;-77
2023/07/02 08:59:51;;;;;;;13.40;4.38;;;;;;;;;;5036101;28;20065;-77
2023/07/02 09:02:17;;;;;;;10.32;3.65;;;;;;;;;;5035495;28;20120;-77
2023/07/02 09:04:43;;;;;;;11.88;4.53;;;;;;;;;;5035966;28;20125;-77
2023/07/02 09:07:10;;;;;;;8.60;4.03;;;;;;;;;;5035612;28;20045;-77
2023/07/02 09:09:46;;;;;;;11.02;3.40;;;;;;;;;;5035378;28;20076;-77
2023/07/02 09:12:29;;;;;;;8.35;3.40;;;;;;;;;;5034921;28;20052;-77
2023/07/02 09:15:06;;;;;;;13.65;3.75;;;;;;;;;;5033442;28;20041;-77
2023/07/02 09:17:41;;;;;;;10.02;3.60;;;;;;;;;;5015663;28;20068;-77
2023/07/02 09:20:08;;;;;;;9.60;3.35;;;;;;;;;;5015527;28;20507;-77
2023/07/02 09:22:35;;;;;;;8.88;3.95;;;;;;;;;;5015361;28;20053;-77
2023/07/02 09:25:02;;;;;;;10.85;4.18;;;;;;;;;;5016468;28;20061;-77
2023/07/02 09:27:36;;;;;;;14.68;3.70;;;;;;;;;;5017207;28;20080;-77
2023/07/02 09:30:18;;;;;;;8.95;3.83;;;;;;;;;;5015437;28;20129;-78
2023/07/02 09:32:45;;;;;;;10.27;3.45;;;;;;;;;;5017602;28;20108;-77
2023/07/02 09:35:11;;;;;;;8.70;3.90;;;;;;;;;;5018190;28;20038;-77
2023/07/02 09:37:37;;;;;;;9.30;3.85;;;;;;;;;;5020645;28;20042;-77
2023/07/02 09:40:07;;;;;;;8.25;3.70;;;;;;;;;;5019440;28;20048;-77
2023/07/02 09:42:34;;;;;;;12.40;3.97;;;;;;;;;;5016344;28;20049;-77
2023/07/02 09:45:01;;;;;;;11.50;4.13;;;;;;;;;;5016985;28;20053;-77
2023/07/02 09:47:27;;;;;;;11.95;3.88;;;;;;;;;;5017437;28;20037;-77
2023/07/02 09:50:03;;;;;;;10.73;4.47;;;;;;;;;;5016153;28;20046;-77
2023/07/02 09:52:29;;;;;;;9.57;4.15;;;;;;;;;;5016189;28;20239;-77
2023/07/02 09:54:55;;;;;;;9.20;3.53;;;;;;;;;;5013467;28;20412;-78
2023/07/02 09:57:22;;;;;;;10.68;3.78;;;;;;;;;;5013011;28;20445;-78
2023/07/02 09:59:48;;;;;;;9.05;4.22;;;;;;;;;;5014906;28;20038;-77
2023/07/02 10:02:14;;;;;;;10.32;4.13;;;;;;;;;;5014894;28;20049;-77
2023/07/02 10:04:54;;;;;;;11.35;3.85;;;;;;;;;;5013968;28;20050;-77
2023/07/02 10:07:27;;;;;;;8.77;3.58;;;;;;;;;;5014348;28;20053;-77
2023/07/02 10:09:54;;;;;;;11.57;3.50;;;;;;;;;;5014406;28;20140;-77
2023/07/02 10:12:24;;;;;;;10.32;3.85;;;;;;;;;;5014152;28;20061;-77
2023/07/02 10:14:51;;;;;;;6.35;3.33;;;;;;;;;;5013973;28;20049;-77
2023/07/02 10:17:43;;;;;;;8.15;3.65;;;;;;;;;;5014448;28;20050;-77
2023/07/02 10:20:13;;;;;;;10.32;4.13;;;;;;;;;;5012849;28;20164;-77
2023/07/02 10:22:54;;;;;;;11.02;4.15;;;;;;;;;;5013954;28;20147;-78
2023/07/02 10:25:27;;;;;;;13.30;4.13;;;;;;;;;;5013974;28;20052;-77
2023/07/02 10:27:53;;;;;;;8.07;3.30;;;;;;;;;;5014137;28;20052;-78
2023/07/02 10:30:20;;;;;;;10.00;3.72;;;;;;;;;;5012994;28;20080;-78
2023/07/02 10:32:46;;;;;;;8.07;3.90;;;;;;;;;;5014415;28;20081;-77
2023/07/02 10:35:19;;;;;;;14.30;5.10;;;;;;;;;;5013771;28;20537;-77
2023/07/02 10:37:45;;;;;;;8.65;4.18;;;;;;;;;;5014679;28;20046;-77
2023/07/02 10:40:12;;;;;;;10.55;3.63;;;;;;;;;;5013348;28;20412;-77
2023/07/02 10:42:51;;;;;;;9.38;3.65;;;;;;;;;;5014001;28;20125;-77
2023/07/02 10:45:18;;;;;;;9.15;3.70;;;;;;;;;;5012343;28;20404;-77
2023/07/02 10:47:44;;;;;;;12.50;4.20;;;;;;;;;;5014115;28;20041;-77
2023/07/02 10:50:28;;;;;;;12.15;3.90;;;;;;;;;;5013517;28;20042;-77
2023/07/02 10:52:54;;;;;;;9.15;4.00;;;;;;;;;;5013594;28;20125;-78
2023/07/02 10:55:21;;;;;;;8.80;4.57;;;;;;;;;;5013275;28;20100;-78
2023/07/02 10:57:48;;;;;;;6.38;3.42;;;;;;;;;;5013169;28;20054;-77
2023/07/02 11:00:14;;;;;;;13.80;4.55;;;;;;;;;;5013309;28;20042;-77
2023/07/02 11:02:41;;;;;;;9.13;3.72;;;;;;;;;;5013651;28;20042;-77
2023/07/02 11:05:14;;;;;;;8.90;3.78;;;;;;;;;;5013604;28;20056;-77
2023/07/02 11:07:41;;;;;;;9.27;3.50;;;;;;;;;;5013623;28;20396;-77
2023/07/02 11:10:07;;;;;;;8.82;3.40;;;;;;;;;;5013474;28;20122;-77
2023/07/02 11:12:33;;;;;;;10.45;3.55;;;;;;;;;;5013496;28;20429;-77
2023/07/02 11:15:13;;;;;;;6.38;3.53;;;;;;;;;;5012928;28;20093;-77
2023/07/02 11:17:41;;;;;;;9.10;3.25;;;;;;;;;;5013403;28;20108;-77
2023/07/02 11:20:08;;;;;;;14.10;4.38;;;;;;;;;;5013509;28;20041;-79
2023/07/02 11:22:35;;;;;;;6.60;3.58;;;;;;;;;;5013388;28;20074;-78
2023/07/02 11:25:21;;;;;;;8.73;3.53;;;;;;;;;;5013268;28;20046;-79
2023/07/02 11:27:47;;;;;;;;;;;;;;;;;;5014590;28;20453;-78
2023/07/02 11:30:13;;;;;;;9.32;3.35;;;;;;;;;;5013154;28;19925;-78
2023/07/02 11:32:52;;;;;;;6.85;2.85;;;;;;;;;;5013697;28;20049;-77
2023/07/02 11:35:19;;;;;;;8.82;3.70;;;;;;;;;;5012995;28;20050;-77
2023/07/02 11:37:46;;;;;;;6.85;3.25;;;;;;;;;;5013190;28;20046;-77
2023/07/02 11:40:15;;;;;;;10.60;3.42;;;;;;;;;;5013442;28;20080;-77
2023/07/02 11:42:41;;;;;;;10.40;4.18;;;;;;;;;;5011490;28;20050;-78
2023/07/02 11:45:08;;;;;;;9.93;4.07;;;;;;;;;;5012787;28;20388;-78
2023/07/02 11:47:34;;;;;;;10.23;4.35;;;;;;;;;;5013143;28;20045;-77
2023/07/02 11:50:00;;;;;;;7.32;3.15;;;;;;;;;;5013018;28;20042;-77
2023/07/02 11:52:26;;;;;;;11.82;4.38;;;;;;;;;;5012840;28;20060;-77
2023/07/02 11:54:52;;;;;;;11.10;3.90;;;;;;;;;;5013305;28;20488;-77
2023/07/02 11:57:18;;;;;;;9.30;3.85;;;;;;;;;;5013241;28;20068;-78
2023/07/02 11:59:44;;;;;;;8.27;3.70;;;;;;;;;;5012028;28;20050;-77
2023/07/02 12:02:10;;;;;;;10.23;3.80;;;;;;;;;;5013096;28;20042;-78
2023/07/02 12:04:36;;;;;;;11.32;4.05;;;;;;;;;;5013350;28;20046;-77
2023/07/02 12:07:03;;;;;;;10.20;3.85;;;;;;;;;;5013155;28;20046;-78
2023/07/02 12:09:29;;;;;;;8.07;3.60;;;;;;;;;;5014064;28;20471;-77
2023/07/02 12:11:55;;;;;;;9.38;3.58;;;;;;;;;;5016745;28;20034;-77
2023/07/02 12:14:21;;;;;;;10.07;3.75;;;;;;;;;;5016971;28;20125;-77
2023/07/02 12:16:47;;;;;;;10.40;4.03;;;;;;;;;;5017131;28;20073;-77
2023/07/02 12:19:14;;;;;;;9.90;3.65;;;;;;;;;;5017202;28;20042;-77
2023/07/02 12:21:40;;;;;;;8.82;3.67;;;;;;;;;;5016344;28;20451;-77
2023/07/02 12:24:09;;;;;;;10.63;4.13;;;;;;;;;;5016867;28;20046;-77
2023/07/02 12:26:38;;;;;;;12.70;4.05;;;;;;;;;;5016173;28;20149;-77
2023/07/02 12:29:04;;;;;;;6.63;4.40;;;;;;;;;;5016286;28;20125;-77
2023/07/02 12:31:30;;;;;;;8.65;3.95;;;;;;;;;;5015888;28;20492;-77
2023/07/02 12:33:56;;;;;;;11.65;4.57;;;;;;;;;;5016446;28;20070;-77
2023/07/02 12:36:22;;;;;;;11.00;4.50;;;;;;;;;;5016206;28;20053;-77
2023/07/02 12:38:49;;;;;;;10.05;4.10;;;;;;;;;;5016621;28;20046;-78
2023/07/02 12:41:15;;;;;;;9.98;4.85;;;;;;;;;;5016146;28;20046;-79
2023/07/02 12:43:41;;;;;;;11.40;4.47;;;;;;;;;;5016638;28;20411;-79
2023/07/02 12:46:07;;;;;;;12.13;4.50;;;;;;;;;;5016213;28;20033;-79
2023/07/02 12:48:33;;;;;;;11.57;4.20;;;;;;;;;;5016842;28;20042;-79
2023/07/02 12:51:00;;;;;;;11.77;4.95;;;;;;;;;;5014693;28;20068;-78
2023/07/02 12:53:27;;;;;;;8.40;4.20;;;;;;;;;;5016545;28;20042;-78
2023/07/02 12:55:53;;;;;;;9.07;4.05;;;;;;;;;;5015645;28;20077;-78
2023/07/02 12:58:19;;;;;;;8.82;4.15;;;;;;;;;;5015865;28;20041;-77
2023/07/02 13:00:45;;;;;;;7.45;3.70;;;;;;;;;;5015696;28;20071;-77
2023/07/02 13:03:12;;;;;;;9.48;4.25;;;;;;;;;;5016244;28;20104;-78
2023/07/02 13:05:39;;;;;;;8.20;3.90;;;;;;;;;;5015682;28;20121;-78
2023/07/02 13:08:06;;;;;;;9.35;3.70;;;;;;;;;;5016334;28;20072;-78
2023/07/02 13:10:33;;;;;;;7.68;4.45;;;;;;;;;;5014354;28;20531;-79
2023/07/02 13:12:59;;;;;;;7.43;3.58;;;;;;;;;;5015688;28;20041;-78
2023/07/02 13:15:25;;;;;;;8.07;3.80;;;;;;;;;;5015543;28;20489;-77
2023/07/02 13:17:51;;;;;;;7.10;3.80;;;;;;;;;;5017955;28;20052;-78
2023/07/02 13:20:17;;;;;;;9.75;4.13;;;;;;;;;;5018419;28;20046;-77
2023/07/02 13:22:43;;;;;;;9.70;4.10;;;;;;;;;;5020554;28;20130;-77
2023/07/02 13:25:10;;;;;;;8.43;3.95;;;;;;;;;;5017382;28;20060;-77
2023/07/02 13:27:36;;;;;;;7.43;3.90;;;;;;;;;;5015729;28;20137;-77
2023/07/02 13:30:02;;;;;;;7.10;3.80;;;;;;;;;;5015426;28;20448;-77
2023/07/02 13:32:28;;;;;;;7.50;4.03;;;;;;;;;;5015615;28;20038;-78
2023/07/02 13:34:54;;;;;;;10.27;4.50;;;;;;;;;;5013984;28;20053;-79
2023/07/02 13:37:20;;;;;;;10.15;3.80;;;;;;;;;;5013423;28;20072;-79
2023/07/02 13:39:47;;;;;;;6.25;3.35;;;;;;;;;;5015109;28;20137;-79
2023/07/02 13:42:13;;;;;;;7.85;3.70;;;;;;;;;;5014782;28;20468;-77
2023/07/02 13:44:39;;;;;;;11.55;3.85;;;;;;;;;;5014535;28;20407;-77
2023/07/02 13:47:06;;;;;;;12.27;4.63;;;;;;;;;;5015301;28;20046;-78
2023/07/02 13:49:32;;;;;;;8.95;3.65;;;;;;;;;;5015688;28;20046;-78
2023/07/02 13:51:58;;;;;;;6.50;4.00;;;;;;;;;;5013520;28;20488;-77
2023/07/02 13:54:24;;;;;;;12.52;4.28;;;;;;;;;;5014647;28;20056;-77
2023/07/02 13:56:51;;;;;;;8.88;4.10;;;;;;;;;;5015198;28;20049;-77
2023/07/02 13:59:17;;;;;;;7.70;4.32;;;;;;;;;;5014453;28;20046;-77
2023/07/02 14:01:43;;;;;;;9.07;4.38;;;;;;;;;;5014340;28;20488;-77
2023/07/02 14:04:09;;;;;;;9.93;4.43;;;;;;;;;;5015418;28;20128;-77
2023/07/02 14:06:36;;;;;;;10.57;4.15;;;;;;;;;;5014660;28;20045;-77
2023/07/02 14:09:02;;;;;;;10.70;4.35;;;;;;;;;;5014694;28;20133;-77
2023/07/02 14:11:28;;;;;;;7.68;4.35;;;;;;;;;;5015043;28;20145;-77
2023/07/02 14:13:55;;;;;;;5.75;3.90;;;;;;;;;;5015280;28;20086;-78
2023/07/02 14:16:21;;;;;;;8.27;4.22;;;;;;;;;;5014623;28;20049;-77
2023/07/02 14:18:48;;;;;;;9.30;4.30;;;;;;;;;;5014565;28;20078;-77
2023/07/02 14:21:14;;;;;;;9.07;4.22;;;;;;;;;;5014321;28;20045;-77
2023/07/02 14:23:40;;;;;;;11.65;4.47;;;;;;;;;;5014738;28;20050;-77
2023/07/02 14:26:07;;;;;;;11.00;4.30;;;;;;;;;;5013740;28;20085;-77
2023/07/02 14:28:33;;;;;;;8.73;4.43;;;;;;;;;;4996545;28;20111;-77
2023/07/02 14:31:00;;;;;;;10.90;4.40;;;;;;;;;;5014095;28;20099;-77